sensor_id;sensor_type;location;lat;lon;timestamp;pressure;altitude;pressure_sealevel;temperature;humidity
62895;BME280;49204;44.916;37.998;2022-09-28T00:01:38;100295.25;;;18.33;75.04
62895;BME280;49204;44.916;37.998;2022-09-28T00:04:06;100287.75;;;18.32;74.98
62895;BME280;49204;44.916;37.998;2022-09-28T00:06:35;100276.97;;;18.34;74.92
62895;BME280;49204;44.916;37.998;2022-09-28T00:09:04;100255.77;;;18.32;74.82
62895;BME280;49204;44.916;37.998;2022-09-28T00:11:33;100247.89;;;18.31;74.76
62895;BME280;49204;44.916;37.998;2022-09-28T00:14:03;100240.01;;;18.29;74.66
62895;BME280;49204;44.916;37.998;2022-09-28T00:16:35;100240.28;;;18.26;74.59
62895;BME280;49204;44.916;37.998;2022-09-28T00:19:04;100231.67;;;18.23;74.48
62895;BME280;49204;44.916;37.998;2022-09-28T00:21:36;100230.34;;;18.17;74.56
62895;BME280;49204;44.916;37.998;2022-09-28T00:24:07;100235.06;;;18.13;74.71
62895;BME280;49204;44.916;37.998;2022-09-28T00:26:41;100244.27;;;18.09;74.86
62895;BME280;49204;44.916;37.998;2022-09-28T00:29:20;100271.88;;;18.08;75.62
62895;BME280;49204;44.916;37.998;2022-09-28T00:31:50;100279.63;;;18.06;77.25
62895;BME280;49204;44.916;37.998;2022-09-28T00:34:20;100297.18;;;18.08;78.56
62895;BME280;49204;44.916;37.998;2022-09-28T00:36:49;100308.94;;;18.11;79.72
62895;BME280;49204;44.916;37.998;2022-09-28T00:39:17;100314.39;;;18.16;80.06
62895;BME280;49204;44.916;37.998;2022-09-28T00:41:47;100322.62;;;18.18;80.05
62895;BME280;49204;44.916;37.998;2022-09-28T00:44:31;100318.89;;;18.21;80.26
62895;BME280;49204;44.916;37.998;2022-09-28T00:53:09;100316.34;;;18.25;79.61
62895;BME280;49204;44.916;37.998;2022-09-28T00:54:59;100325.44;;;18.28;79.36
62895;BME280;49204;44.916;37.998;2022-09-28T00:57:30;100326.39;;;18.27;79.09
62895;BME280;49204;44.916;37.998;2022-09-28T01:00:00;100317.91;;;18.27;78.88
62895;BME280;49204;44.916;37.998;2022-09-28T01:02:30;100318.39;;;18.27;78.71
62895;BME280;49204;44.916;37.998;2022-09-28T01:04:59;100325.66;;;18.25;78.89
62895;BME280;49204;44.916;37.998;2022-09-28T01:07:31;100323.23;;;18.22;79.19
62895;BME280;49204;44.916;37.998;2022-09-28T01:10:00;100326.27;;;18.17;79.70
62895;BME280;49204;44.916;37.998;2022-09-28T01:12:29;100308.34;;;18.13;79.68
62895;BME280;49204;44.916;37.998;2022-09-28T01:14:58;100309.89;;;18.10;79.44
62895;BME280;49204;44.916;37.998;2022-09-28T01:17:37;100315.34;;;18.09;79.18
62895;BME280;49204;44.916;37.998;2022-09-28T01:28:45;100322.11;;;18.07;79.07
62895;BME280;49204;44.916;37.998;2022-09-28T01:31:17;100311.83;;;18.08;78.79
62895;BME280;49204;44.916;37.998;2022-09-28T01:33:51;100322.26;;;18.06;78.61
62895;BME280;49204;44.916;37.998;2022-09-28T01:36:40;100293.41;;;18.05;78.53
62895;BME280;49204;44.916;37.998;2022-09-28T01:39:15;100286.14;;;18.02;78.49
62895;BME280;49204;44.916;37.998;2022-09-28T01:41:41;100299.23;;;17.99;78.46
62895;BME280;49204;44.916;37.998;2022-09-28T01:44:13;100314.37;;;17.99;79.45
62895;BME280;49204;44.916;37.998;2022-09-28T01:46:47;100343.55;;;18.00;80.90
62895;BME280;49204;44.916;37.998;2022-09-28T01:49:26;100345.13;;;18.03;80.62
62895;BME280;49204;44.916;37.998;2022-09-28T01:52:08;100333.75;;;18.06;80.71
62895;BME280;49204;44.916;37.998;2022-09-28T01:55:05;100317.28;;;18.12;80.89
62895;BME280;49204;44.916;37.998;2022-09-28T02:00:12;100338.26;;;18.17;80.66
62895;BME280;49204;44.916;37.998;2022-09-28T02:02:49;100349.76;;;18.18;81.05
62895;BME280;49204;44.916;37.998;2022-09-28T02:05:29;100354.12;;;18.19;81.28
62895;BME280;49204;44.916;37.998;2022-09-28T02:08:19;100364.30;;;18.19;81.18
62895;BME280;49204;44.916;37.998;2022-09-28T02:13:45;100342.87;;;18.21;81.12
62895;BME280;49204;44.916;37.998;2022-09-28T02:16:42;100334.14;;;18.19;80.89
62895;BME280;49204;44.916;37.998;2022-09-28T02:19:14;100336.05;;;18.17;80.65
62895;BME280;49204;44.916;37.998;2022-09-28T02:24:25;100315.83;;;18.08;80.21
62895;BME280;49204;44.916;37.998;2022-09-28T02:29:42;100317.88;;;17.99;80.00
62895;BME280;49204;44.916;37.998;2022-09-28T02:32:11;100311.58;;;17.94;79.93
62895;BME280;49204;44.916;37.998;2022-09-28T02:34:40;100309.75;;;17.89;79.94
62895;BME280;49204;44.916;37.998;2022-09-28T02:37:09;100302.09;;;17.85;79.96
62895;BME280;49204;44.916;37.998;2022-09-28T02:39:38;100292.62;;;17.81;80.02
62895;BME280;49204;44.916;37.998;2022-09-28T02:42:15;100282.30;;;17.76;80.09
62895;BME280;49204;44.916;37.998;2022-09-28T02:44:46;100281.72;;;17.72;80.13
62895;BME280;49204;44.916;37.998;2022-09-28T02:53:26;100268.60;;;17.58;80.27
62895;BME280;49204;44.916;37.998;2022-09-28T02:58:36;100251.02;;;17.50;80.40
62895;BME280;49204;44.916;37.998;2022-09-28T03:01:17;100250.78;;;17.47;80.48
62895;BME280;49204;44.916;37.998;2022-09-28T03:03:56;100241.95;;;17.47;80.60
62895;BME280;49204;44.916;37.998;2022-09-28T03:06:30;100250.28;;;17.48;80.94
62895;BME280;49204;44.916;37.998;2022-09-28T03:09:03;100252.00;;;17.49;80.99
62895;BME280;49204;44.916;37.998;2022-09-28T03:11:36;100262.16;;;17.49;80.82
62895;BME280;49204;44.916;37.998;2022-09-28T03:14:07;100265.03;;;17.46;80.73
62895;BME280;49204;44.916;37.998;2022-09-28T03:16:42;100260.80;;;17.44;80.75
62895;BME280;49204;44.916;37.998;2022-09-28T03:19:11;100261.90;;;17.41;80.82
62895;BME280;49204;44.916;37.998;2022-09-28T03:21:40;100268.39;;;17.37;80.82
62895;BME280;49204;44.916;37.998;2022-09-28T03:24:10;100279.74;;;17.33;80.68
62895;BME280;49204;44.916;37.998;2022-09-28T03:26:40;100283.38;;;17.32;80.93
62895;BME280;49204;44.916;37.998;2022-09-28T03:29:09;100278.06;;;17.32;81.10
62895;BME280;49204;44.916;37.998;2022-09-28T03:31:38;100265.81;;;17.30;81.16
62895;BME280;49204;44.916;37.998;2022-09-28T03:34:07;100240.69;;;17.28;81.18
62895;BME280;49204;44.916;37.998;2022-09-28T03:36:36;100226.62;;;17.26;81.15
62895;BME280;49204;44.916;37.998;2022-09-28T03:39:05;100241.85;;;17.24;81.18
62895;BME280;49204;44.916;37.998;2022-09-28T03:41:35;100265.06;;;17.22;81.19
62895;BME280;49204;44.916;37.998;2022-09-28T03:44:04;100269.30;;;17.19;81.29
62895;BME280;49204;44.916;37.998;2022-09-28T03:46:37;100270.74;;;17.17;81.38
62895;BME280;49204;44.916;37.998;2022-09-28T03:49:08;100274.00;;;17.15;81.36
62895;BME280;49204;44.916;37.998;2022-09-28T03:51:37;100251.12;;;17.13;81.20
62895;BME280;49204;44.916;37.998;2022-09-28T03:54:06;100256.09;;;17.12;81.33
62895;BME280;49204;44.916;37.998;2022-09-28T03:56:35;100281.95;;;17.10;81.54
62895;BME280;49204;44.916;37.998;2022-09-28T03:59:04;100295.61;;;17.11;81.97
62895;BME280;49204;44.916;37.998;2022-09-28T04:01:33;100295.88;;;17.13;82.17
62895;BME280;49204;44.916;37.998;2022-09-28T04:04:02;100291.16;;;17.17;82.27
62895;BME280;49204;44.916;37.998;2022-09-28T04:06:31;100290.70;;;17.17;82.31
62895;BME280;49204;44.916;37.998;2022-09-28T04:09:00;100282.95;;;17.20;82.34
62895;BME280;49204;44.916;37.998;2022-09-28T04:11:29;100292.27;;;17.20;82.31
62895;BME280;49204;44.916;37.998;2022-09-28T04:13:58;100290.34;;;17.22;82.33
62895;BME280;49204;44.916;37.998;2022-09-28T04:16:28;100288.55;;;17.23;82.34
62895;BME280;49204;44.916;37.998;2022-09-28T04:19:04;100269.44;;;17.23;82.33
62895;BME280;49204;44.916;37.998;2022-09-28T04:21:51;100251.41;;;17.21;82.37
62895;BME280;49204;44.916;37.998;2022-09-28T04:24:25;100274.87;;;17.22;82.32
62895;BME280;49204;44.916;37.998;2022-09-28T04:26:57;100281.63;;;17.20;82.39
62895;BME280;49204;44.916;37.998;2022-09-28T04:29:28;100277.14;;;17.21;82.44
62895;BME280;49204;44.916;37.998;2022-09-28T04:31:59;100268.11;;;17.23;82.45
62895;BME280;49204;44.916;37.998;2022-09-28T04:34:35;100247.55;;;17.25;82.48
62895;BME280;49204;44.916;37.998;2022-09-28T04:37:05;100243.91;;;17.26;82.48
62895;BME280;49204;44.916;37.998;2022-09-28T04:39:33;100265.58;;;17.27;82.48
62895;BME280;49204;44.916;37.998;2022-09-28T04:42:03;100279.38;;;17.27;82.58
62895;BME280;49204;44.916;37.998;2022-09-28T04:44:32;100286.12;;;17.25;82.72
62895;BME280;49204;44.916;37.998;2022-09-28T04:47:05;100292.19;;;17.27;82.85
62895;BME280;49204;44.916;37.998;2022-09-28T04:49:44;100286.64;;;17.30;82.95
62895;BME280;49204;44.916;37.998;2022-09-28T04:52:21;100284.84;;;17.36;83.03
62895;BME280;49204;44.916;37.998;2022-09-28T04:54:49;100274.71;;;17.42;83.06
62895;BME280;49204;44.916;37.998;2022-09-28T04:57:19;100275.57;;;17.48;83.03
62895;BME280;49204;44.916;37.998;2022-09-28T04:59:48;100277.03;;;17.52;82.97
62895;BME280;49204;44.916;37.998;2022-09-28T05:02:18;100284.58;;;17.58;82.93
62895;BME280;49204;44.916;37.998;2022-09-28T05:04:54;100288.80;;;17.61;82.90
62895;BME280;49204;44.916;37.998;2022-09-28T05:07:41;100287.25;;;17.64;82.85
62895;BME280;49204;44.916;37.998;2022-09-28T05:10:11;100306.23;;;17.65;82.81
62895;BME280;49204;44.916;37.998;2022-09-28T05:12:40;100302.73;;;17.64;82.80
62895;BME280;49204;44.916;37.998;2022-09-28T05:15:10;100283.25;;;17.64;82.76
62895;BME280;49204;44.916;37.998;2022-09-28T05:17:39;100295.73;;;17.63;82.72
62895;BME280;49204;44.916;37.998;2022-09-28T05:20:12;100305.27;;;17.60;82.67
62895;BME280;49204;44.916;37.998;2022-09-28T05:22:41;100297.99;;;17.56;82.63
62895;BME280;49204;44.916;37.998;2022-09-28T05:25:10;100286.73;;;17.53;82.54
62895;BME280;49204;44.916;37.998;2022-09-28T05:27:40;100286.95;;;17.50;82.46
62895;BME280;49204;44.916;37.998;2022-09-28T05:30:11;100278.23;;;17.48;82.40
62895;BME280;49204;44.916;37.998;2022-09-28T05:32:47;100290.57;;;17.43;82.32
62895;BME280;49204;44.916;37.998;2022-09-28T05:35:28;100301.22;;;17.43;82.23
62895;BME280;49204;44.916;37.998;2022-09-28T05:38:02;100292.85;;;17.42;82.19
62895;BME280;49204;44.916;37.998;2022-09-28T05:40:32;100291.28;;;17.40;82.21
62895;BME280;49204;44.916;37.998;2022-09-28T05:43:01;100294.89;;;17.39;82.17
62895;BME280;49204;44.916;37.998;2022-09-28T05:45:32;100301.55;;;17.39;82.09
62895;BME280;49204;44.916;37.998;2022-09-28T05:48:02;100294.54;;;17.38;82.04
62895;BME280;49204;44.916;37.998;2022-09-28T05:50:31;100302.88;;;17.39;81.99
62895;BME280;49204;44.916;37.998;2022-09-28T05:53:09;100298.88;;;17.39;81.98
62895;BME280;49204;44.916;37.998;2022-09-28T05:55:36;100296.11;;;17.40;81.95
62895;BME280;49204;44.916;37.998;2022-09-28T05:58:06;100301.67;;;17.43;81.90
62895;BME280;49204;44.916;37.998;2022-09-28T06:00:35;100292.74;;;17.44;81.82
62895;BME280;49204;44.916;37.998;2022-09-28T06:03:07;100282.59;;;17.43;81.89
62895;BME280;49204;44.916;37.998;2022-09-28T06:05:36;100288.53;;;17.47;81.86
62895;BME280;49204;44.916;37.998;2022-09-28T06:08:08;100293.98;;;17.51;81.80
62895;BME280;49204;44.916;37.998;2022-09-28T06:10:39;100297.75;;;17.54;81.76
62895;BME280;49204;44.916;37.998;2022-09-28T06:13:09;100290.01;;;17.56;81.71
62895;BME280;49204;44.916;37.998;2022-09-28T06:15:41;100286.12;;;17.55;81.70
62895;BME280;49204;44.916;37.998;2022-09-28T06:18:13;100289.77;;;17.54;81.67
62895;BME280;49204;44.916;37.998;2022-09-28T06:20:43;100281.78;;;17.54;81.58
62895;BME280;49204;44.916;37.998;2022-09-28T06:23:16;100288.78;;;17.55;81.42
62895;BME280;49204;44.916;37.998;2022-09-28T06:25:45;100280.91;;;17.53;81.35
62895;BME280;49204;44.916;37.998;2022-09-28T06:28:16;100280.67;;;17.51;81.21
62895;BME280;49204;44.916;37.998;2022-09-28T06:30:45;100283.34;;;17.51;81.09
62895;BME280;49204;44.916;37.998;2022-09-28T06:33:16;100295.31;;;17.51;80.99
62895;BME280;49204;44.916;37.998;2022-09-28T06:35:45;100303.30;;;17.51;80.92
62895;BME280;49204;44.916;37.998;2022-09-28T06:38:14;100299.80;;;17.50;80.85
62895;BME280;49204;44.916;37.998;2022-09-28T06:40:43;100298.21;;;17.53;80.88
62895;BME280;49204;44.916;37.998;2022-09-28T06:43:13;100286.97;;;17.55;80.85
62895;BME280;49204;44.916;37.998;2022-09-28T06:46:00;100293.89;;;17.58;80.85
62895;BME280;49204;44.916;37.998;2022-09-28T06:48:31;100298.23;;;17.59;80.81
62895;BME280;49204;44.916;37.998;2022-09-28T06:51:01;100295.11;;;17.60;80.92
62895;BME280;49204;44.916;37.998;2022-09-28T06:53:34;100290.02;;;17.62;80.93
62895;BME280;49204;44.916;37.998;2022-09-28T06:56:10;100289.08;;;17.63;80.97
62895;BME280;49204;44.916;37.998;2022-09-28T06:58:39;100292.92;;;17.65;80.97
62895;BME280;49204;44.916;37.998;2022-09-28T07:01:08;100287.87;;;17.67;80.90
62895;BME280;49204;44.916;37.998;2022-09-28T07:03:40;100279.28;;;17.69;80.80
62895;BME280;49204;44.916;37.998;2022-09-28T07:06:26;100281.58;;;17.74;80.71
62895;BME280;49204;44.916;37.998;2022-09-28T07:09:09;100289.72;;;17.78;80.60
62895;BME280;49204;44.916;37.998;2022-09-28T07:11:42;100300.50;;;17.82;80.50
62895;BME280;49204;44.916;37.998;2022-09-28T07:14:12;100272.42;;;17.84;80.32
62895;BME280;49204;44.916;37.998;2022-09-28T07:16:42;100254.53;;;17.86;80.28
62895;BME280;49204;44.916;37.998;2022-09-28T07:19:11;100255.48;;;17.85;80.23
62895;BME280;49204;44.916;37.998;2022-09-28T07:21:42;100267.85;;;17.86;80.18
62895;BME280;49204;44.916;37.998;2022-09-28T07:24:11;100276.30;;;17.85;80.14
62895;BME280;49204;44.916;37.998;2022-09-28T07:26:51;100275.35;;;17.86;80.17
62895;BME280;49204;44.916;37.998;2022-09-28T07:29:40;100282.50;;;17.86;80.15
62895;BME280;49204;44.916;37.998;2022-09-28T07:32:25;100286.00;;;17.86;80.14
62895;BME280;49204;44.916;37.998;2022-09-28T07:35:13;100275.84;;;17.86;80.21
62895;BME280;49204;44.916;37.998;2022-09-28T07:38:00;100272.19;;;17.87;80.17
62895;BME280;49204;44.916;37.998;2022-09-28T07:40:32;100273.30;;;17.90;80.11
62895;BME280;49204;44.916;37.998;2022-09-28T07:43:09;100277.06;;;17.93;80.04
62895;BME280;49204;44.916;37.998;2022-09-28T07:45:47;100279.02;;;17.97;79.84
62895;BME280;49204;44.916;37.998;2022-09-28T07:48:11;100283.12;;;18.01;79.59
62895;BME280;49204;44.916;37.998;2022-09-28T07:50:54;100284.95;;;18.06;79.36
62895;BME280;49204;44.916;37.998;2022-09-28T07:53:34;100300.34;;;18.19;79.11
62895;BME280;49204;44.916;37.998;2022-09-28T07:56:12;100312.00;;;18.41;78.80
62895;BME280;49204;44.916;37.998;2022-09-28T07:58:45;100294.16;;;18.69;78.57
62895;BME280;49204;44.916;37.998;2022-09-28T08:01:20;100295.36;;;18.94;78.18
62895;BME280;49204;44.916;37.998;2022-09-28T08:03:50;100296.50;;;19.18;77.55
62895;BME280;49204;44.916;37.998;2022-09-28T08:06:20;100292.43;;;19.35;76.60
62895;BME280;49204;44.916;37.998;2022-09-28T08:08:49;100289.49;;;19.43;75.37
62895;BME280;49204;44.916;37.998;2022-09-28T08:11:22;100289.84;;;19.50;74.93
62895;BME280;49204;44.916;37.998;2022-09-28T08:14:01;100282.52;;;19.58;74.91
62895;BME280;49204;44.916;37.998;2022-09-28T08:16:41;100284.69;;;19.58;74.80
62895;BME280;49204;44.916;37.998;2022-09-28T08:19:15;100277.27;;;19.62;74.57
62895;BME280;49204;44.916;37.998;2022-09-28T08:21:44;100272.27;;;19.68;74.41
62895;BME280;49204;44.916;37.998;2022-09-28T08:24:15;100268.22;;;19.80;74.28
62895;BME280;49204;44.916;37.998;2022-09-28T08:26:45;100269.98;;;19.91;73.86
62895;BME280;49204;44.916;37.998;2022-09-28T08:29:15;100265.05;;;20.01;73.14
62895;BME280;49204;44.916;37.998;2022-09-28T08:31:48;100257.94;;;20.27;72.79
62895;BME280;49204;44.916;37.998;2022-09-28T08:34:18;100260.61;;;20.52;72.32
62895;BME280;49204;44.916;37.998;2022-09-28T08:36:49;100265.77;;;20.75;71.98
62895;BME280;49204;44.916;37.998;2022-09-28T08:39:28;100259.12;;;20.94;71.77
62895;BME280;49204;44.916;37.998;2022-09-28T08:45:10;100264.01;;;21.14;71.37
62895;BME280;49204;44.916;37.998;2022-09-28T08:48:11;100266.19;;;21.25;71.26
62895;BME280;49204;44.916;37.998;2022-09-28T08:51:08;100270.36;;;21.72;70.44
62895;BME280;49204;44.916;37.998;2022-09-28T08:54:08;100264.33;;;21.93;69.52
62895;BME280;49204;44.916;37.998;2022-09-28T08:56:50;100260.46;;;22.06;69.38
62895;BME280;49204;44.916;37.998;2022-09-28T08:59:11;100254.23;;;22.66;68.58
62895;BME280;49204;44.916;37.998;2022-09-28T09:01:46;100258.77;;;22.98;67.44
62895;BME280;49204;44.916;37.998;2022-09-28T09:04:13;100268.54;;;23.53;67.06
62895;BME280;49204;44.916;37.998;2022-09-28T09:07:21;100276.31;;;24.30;65.91
62895;BME280;49204;44.916;37.998;2022-09-28T09:10:18;100273.59;;;24.22;65.85
62895;BME280;49204;44.916;37.998;2022-09-28T09:16:06;100255.50;;;24.06;65.55
62895;BME280;49204;44.916;37.998;2022-09-28T09:18:47;100251.02;;;24.15;64.70
62895;BME280;49204;44.916;37.998;2022-09-28T09:21:39;100245.20;;;24.27;64.01
62895;BME280;49204;44.916;37.998;2022-09-28T09:24:24;100241.63;;;24.23;64.07
62895;BME280;49204;44.916;37.998;2022-09-28T09:32:24;100241.31;;;23.96;63.72
62895;BME280;49204;44.916;37.998;2022-09-28T09:35:12;100237.72;;;24.09;61.32
62895;BME280;49204;44.916;37.998;2022-09-28T09:49:36;100262.86;;;24.30;56.37
62895;BME280;49204;44.916;37.998;2022-09-28T09:52:24;100260.91;;;24.14;55.23
62895;BME280;49204;44.916;37.998;2022-09-28T09:55:00;100257.52;;;24.04;54.56
62895;BME280;49204;44.916;37.998;2022-09-28T09:57:38;100255.28;;;23.99;52.97
62895;BME280;49204;44.916;37.998;2022-09-28T10:00:09;100252.84;;;24.14;51.89
62895;BME280;49204;44.916;37.998;2022-09-28T10:02:47;100263.75;;;24.39;51.65
62895;BME280;49204;44.916;37.998;2022-09-28T10:05:28;100275.12;;;24.28;50.69
62895;BME280;49204;44.916;37.998;2022-09-28T10:07:57;100272.67;;;24.09;50.78
62895;BME280;49204;44.916;37.998;2022-09-28T10:10:46;100274.24;;;23.94;50.43
62895;BME280;49204;44.916;37.998;2022-09-28T10:13:13;100269.23;;;23.99;50.50
62895;BME280;49204;44.916;37.998;2022-09-28T10:15:42;100261.55;;;24.04;50.21
62895;BME280;49204;44.916;37.998;2022-09-28T10:18:21;100263.35;;;23.99;48.69
62895;BME280;49204;44.916;37.998;2022-09-28T10:21:17;100259.52;;;24.02;48.21
62895;BME280;49204;44.916;37.998;2022-09-28T10:23:57;100264.80;;;24.16;48.31
62895;BME280;49204;44.916;37.998;2022-09-28T10:26:38;100266.57;;;24.29;48.15
62895;BME280;49204;44.916;37.998;2022-09-28T10:29:18;100264.75;;;24.42;48.30
62895;BME280;49204;44.916;37.998;2022-09-28T10:31:50;100273.47;;;25.37;45.29
62895;BME280;49204;44.916;37.998;2022-09-28T10:34:28;100269.11;;;25.53;45.67
62895;BME280;49204;44.916;37.998;2022-09-28T10:39:52;100272.04;;;24.96;45.90
62895;BME280;49204;44.916;37.998;2022-09-28T10:42:25;100280.95;;;24.89;46.48
62895;BME280;49204;44.916;37.998;2022-09-28T10:45:03;100269.98;;;24.86;46.18
62895;BME280;49204;44.916;37.998;2022-09-28T10:47:40;100271.52;;;24.89;44.99
62895;BME280;49204;44.916;37.998;2022-09-28T10:50:21;100280.75;;;24.86;45.01
62895;BME280;49204;44.916;37.998;2022-09-28T10:52:53;100281.05;;;24.71;44.12
62895;BME280;49204;44.916;37.998;2022-09-28T10:55:33;100254.13;;;24.66;44.53
62895;BME280;49204;44.916;37.998;2022-09-28T10:58:23;100275.81;;;24.61;44.46
62895;BME280;49204;44.916;37.998;2022-09-28T11:00:56;100285.70;;;24.56;43.91
62895;BME280;49204;44.916;37.998;2022-09-28T11:03:25;100294.23;;;24.47;44.46
62895;BME280;49204;44.916;37.998;2022-09-28T11:06:01;100297.18;;;24.36;44.51
62895;BME280;49204;44.916;37.998;2022-09-28T11:08:41;100287.20;;;24.24;44.10
62895;BME280;49204;44.916;37.998;2022-09-28T11:11:16;100297.42;;;24.17;44.65
62895;BME280;49204;44.916;37.998;2022-09-28T11:13:50;100294.23;;;24.17;44.45
62895;BME280;49204;44.916;37.998;2022-09-28T11:16:27;100303.36;;;24.28;44.89
62895;BME280;49204;44.916;37.998;2022-09-28T11:19:02;100282.52;;;24.31;44.32
62895;BME280;49204;44.916;37.998;2022-09-28T11:21:39;100283.94;;;24.43;44.51
62895;BME280;49204;44.916;37.998;2022-09-28T11:26:47;100292.70;;;24.49;44.64
62895;BME280;49204;44.916;37.998;2022-09-28T11:29:30;100295.06;;;24.48;44.32
62895;BME280;49204;44.916;37.998;2022-09-28T11:32:01;100295.59;;;24.52;44.68
62895;BME280;49204;44.916;37.998;2022-09-28T11:34:37;100293.61;;;24.54;44.06
62895;BME280;49204;44.916;37.998;2022-09-28T11:40:19;100289.22;;;24.53;44.51
62895;BME280;49204;44.916;37.998;2022-09-28T11:45:55;100292.02;;;24.43;44.46
62895;BME280;49204;44.916;37.998;2022-09-28T11:48:42;100294.39;;;24.46;44.75
62895;BME280;49204;44.916;37.998;2022-09-28T11:51:23;100277.87;;;24.41;44.41
62895;BME280;49204;44.916;37.998;2022-09-28T11:54:06;100282.58;;;24.39;44.79
62895;BME280;49204;44.916;37.998;2022-09-28T11:59:11;100278.70;;;24.37;44.84
62895;BME280;49204;44.916;37.998;2022-09-28T12:01:50;100278.19;;;24.38;44.72
62895;BME280;49204;44.916;37.998;2022-09-28T12:04:27;100273.33;;;24.41;44.67
62895;BME280;49204;44.916;37.998;2022-09-28T12:07:04;100278.26;;;24.50;44.48
62895;BME280;49204;44.916;37.998;2022-09-28T12:09:47;100280.48;;;24.55;43.70
62895;BME280;49204;44.916;37.998;2022-09-28T12:12:33;100296.00;;;24.61;43.80
62895;BME280;49204;44.916;37.998;2022-09-28T12:15:11;100282.56;;;24.73;44.10
62895;BME280;49204;44.916;37.998;2022-09-28T12:17:41;100279.04;;;24.73;43.74
62895;BME280;49204;44.916;37.998;2022-09-28T12:20:29;100295.19;;;24.73;44.34
62895;BME280;49204;44.916;37.998;2022-09-28T12:25:43;100285.77;;;24.73;44.06
62895;BME280;49204;44.916;37.998;2022-09-28T12:28:15;100301.25;;;24.75;44.30
62895;BME280;49204;44.916;37.998;2022-09-28T12:30:43;100296.22;;;24.72;43.59
62895;BME280;49204;44.916;37.998;2022-09-28T12:33:14;100298.56;;;24.75;43.33
62895;BME280;49204;44.916;37.998;2022-09-28T12:39:13;100303.16;;;24.87;44.15
62895;BME280;49204;44.916;37.998;2022-09-28T12:42:16;100297.41;;;24.77;44.31
62895;BME280;49204;44.916;37.998;2022-09-28T12:44:57;100287.77;;;24.66;44.39
62895;BME280;49204;44.916;37.998;2022-09-28T12:47:40;100296.16;;;24.59;44.26
62895;BME280;49204;44.916;37.998;2022-09-28T12:56:00;100302.77;;;24.39;43.48
62895;BME280;49204;44.916;37.998;2022-09-28T13:01:35;100292.69;;;24.45;43.74
62895;BME280;49204;44.916;37.998;2022-09-28T13:04:37;100291.50;;;24.43;43.81
62895;BME280;49204;44.916;37.998;2022-09-28T13:07:35;100287.95;;;24.35;44.11
62895;BME280;49204;44.916;37.998;2022-09-28T13:13:11;100282.04;;;24.05;43.54
62895;BME280;49204;44.916;37.998;2022-09-28T13:15:52;100289.71;;;23.96;43.39
62895;BME280;49204;44.916;37.998;2022-09-28T13:18:45;100288.69;;;23.88;42.85
62895;BME280;49204;44.916;37.998;2022-09-28T13:21:29;100294.66;;;23.82;42.58
62895;BME280;49204;44.916;37.998;2022-09-28T13:23:43;100300.97;;;23.77;42.67
62895;BME280;49204;44.916;37.998;2022-09-28T13:26:27;100298.27;;;23.73;42.41
62895;BME280;49204;44.916;37.998;2022-09-28T13:28:57;100303.97;;;23.70;41.74
62895;BME280;49204;44.916;37.998;2022-09-28T13:31:26;100310.63;;;23.66;41.64
62895;BME280;49204;44.916;37.998;2022-09-28T13:34:01;100309.44;;;23.64;42.22
62895;BME280;49204;44.916;37.998;2022-09-28T13:39:37;100308.22;;;23.59;43.00
62895;BME280;49204;44.916;37.998;2022-09-28T13:42:07;100315.41;;;23.54;43.84
62895;BME280;49204;44.916;37.998;2022-09-28T13:44:45;100318.91;;;23.50;44.69
62895;BME280;49204;44.916;37.998;2022-09-28T13:47:39;100314.19;;;23.48;44.85
62895;BME280;49204;44.916;37.998;2022-09-28T14:01:06;100319.48;;;23.22;46.78
62895;BME280;49204;44.916;37.998;2022-09-28T14:06:30;100319.75;;;23.15;47.96
62895;BME280;49204;44.916;37.998;2022-09-28T14:11:39;100333.57;;;23.06;48.74
62895;BME280;49204;44.916;37.998;2022-09-28T14:16:43;100329.69;;;22.91;50.21
62895;BME280;49204;44.916;37.998;2022-09-28T14:22:06;100323.11;;;22.75;50.66
62895;BME280;49204;44.916;37.998;2022-09-28T14:32:57;100311.95;;;22.43;51.87
62895;BME280;49204;44.916;37.998;2022-09-28T14:35:40;100302.33;;;22.36;52.25
62895;BME280;49204;44.916;37.998;2022-09-28T14:38:19;100312.70;;;22.25;52.67
62895;BME280;49204;44.916;37.998;2022-09-28T14:48:51;100328.29;;;21.92;54.44
62895;BME280;49204;44.916;37.998;2022-09-28T14:59:29;100336.50;;;21.71;56.06
62895;BME280;49204;44.916;37.998;2022-09-28T15:05:01;100333.41;;;21.56;58.31
62895;BME280;49204;44.916;37.998;2022-09-28T15:07:48;100333.38;;;21.47;59.10
62895;BME280;49204;44.916;37.998;2022-09-28T15:10:32;100340.75;;;21.39;60.10
62895;BME280;49204;44.916;37.998;2022-09-28T15:13:05;100353.00;;;21.32;60.67
62895;BME280;49204;44.916;37.998;2022-09-28T15:15:36;100341.78;;;21.23;61.25
62895;BME280;49204;44.916;37.998;2022-09-28T15:18:32;100349.88;;;21.17;61.11
62895;BME280;49204;44.916;37.998;2022-09-28T15:21:01;100343.88;;;21.09;61.20
62895;BME280;49204;44.916;37.998;2022-09-28T15:23:35;100347.38;;;21.00;61.22
62895;BME280;49204;44.916;37.998;2022-09-28T15:26:18;100345.59;;;20.95;62.61
62895;BME280;49204;44.916;37.998;2022-09-28T15:28:42;100348.57;;;20.92;63.47
62895;BME280;49204;44.916;37.998;2022-09-28T15:31:15;100347.12;;;20.88;63.79
62895;BME280;49204;44.916;37.998;2022-09-28T15:33:40;100345.37;;;20.82;64.51
62895;BME280;49204;44.916;37.998;2022-09-28T15:36:29;100343.33;;;20.80;64.74
62895;BME280;49204;44.916;37.998;2022-09-28T15:39:19;100335.19;;;20.76;65.25
62895;BME280;49204;44.916;37.998;2022-09-28T15:41:49;100343.02;;;20.74;65.97